Time;durP1;ratioP1;P1;durP2;ratioP2;P2;SDS_P1;SDS_P2;PMS_P1;PMS_P2;Temp;Humidity;BMP_temperature;BMP_pressure;BME280_temperature;BME280_humidity;BME280_pressure;Samples;Min_cycle;Max_cycle;Signal;HPM_P1;HPM_P2
2024/04/09 00:00:21;;;;;;;1999.90;999.90;;;11.00;99.90;;;;;;5411205;26;20009;-76
2024/04/09 00:02:47;;;;;;;1999.90;999.90;;;10.80;99.90;;;;;;5441870;26;20452;-76
2024/04/09 00:05:13;;;;;;;1999.90;999.90;;;10.70;99.90;;;;;;5441081;26;19991;-75
2024/04/09 00:07:39;;;;;;;1999.90;999.90;;;10.50;99.90;;;;;;5414245;26;20123;-75
2024/04/09 00:10:07;;;;;;;1999.90;999.90;;;10.60;99.90;;;;;;5409801;26;20010;-75
2024/04/09 00:12:35;;;;;;;1999.90;999.90;;;10.60;99.90;;;;;;5409690;26;19999;-75
2024/04/09 00:15:07;;;;;;;1999.90;999.90;;;10.40;99.90;;;;;;5441621;26;20450;-76
2024/04/09 00:17:44;;;;;;;1999.90;999.90;;;10.40;99.90;;;;;;5439172;26;20017;-75
2024/04/09 00:20:17;;;;;;;1999.90;999.90;;;10.30;99.90;;;;;;5405545;26;20015;-75
2024/04/09 00:22:45;;;;;;;1999.90;999.90;;;10.30;99.90;;;;;;5409605;26;20003;-75
2024/04/09 00:25:12;;;;;;;1999.90;999.90;;;10.30;99.90;;;;;;5446023;26;20469;-75
2024/04/09 00:27:39;;;;;;;1999.90;999.90;;;10.50;99.90;;;;;;5442002;26;20539;-75
2024/04/09 00:30:06;;;;;;;1999.90;999.90;;;10.40;99.90;;;;;;5411228;26;20042;-76
2024/04/09 00:32:32;;;;;;;;;;;10.50;99.90;;;;;;5402988;26;19995;-76
2024/04/09 00:34:58;;;;;;;1999.90;999.90;;;10.40;99.90;;;;;;5438946;26;20259;-76
2024/04/09 00:37:24;;;;;;;1999.90;999.90;;;10.40;99.90;;;;;;5444378;26;20038;-76
2024/04/09 00:39:50;;;;;;;1999.90;999.90;;;10.40;99.90;;;;;;5445746;26;20009;-75
2024/04/09 00:42:15;;;;;;;1999.90;999.90;;;10.30;99.90;;;;;;5440465;26;20224;-76
2024/04/09 00:44:41;;;;;;;1999.90;999.90;;;10.40;99.90;;;;;;5436018;26;20124;-76
2024/04/09 00:47:08;;;;;;;1999.90;999.90;;;10.50;99.90;;;;;;5436443;26;20001;-76
2024/04/09 00:49:34;;;;;;;1999.90;999.90;;;10.60;99.90;;;;;;5408736;26;20063;-76
2024/04/09 00:52:00;;;;;;;1999.90;999.90;;;10.60;99.90;;;;;;5406647;26;19991;-76
2024/04/09 00:54:27;;;;;;;1999.90;999.90;;;10.30;99.90;;;;;;5407969;26;20077;-77
2024/04/09 00:56:54;;;;;;;1999.90;999.90;;;10.40;99.90;;;;;;5445384;26;20880;-76
2024/04/09 00:59:21;;;;;;;1999.90;999.90;;;10.40;99.90;;;;;;5409206;26;20046;-75
2024/04/09 01:01:48;;;;;;;1999.90;999.90;;;10.30;99.90;;;;;;5418294;26;20013;-75
2024/04/09 01:04:14;;;;;;;1999.90;999.90;;;10.30;99.90;;;;;;5440871;26;19991;-75
2024/04/09 01:06:41;;;;;;;1999.90;999.90;;;10.30;99.90;;;;;;5446791;26;20005;-75
2024/04/09 01:09:08;;;;;;;;;;;10.20;99.90;;;;;;5412707;26;20027;-75
2024/04/09 01:11:34;;;;;;;1999.90;999.90;;;10.40;99.90;;;;;;5434253;26;19932;-75
2024/04/09 01:14:00;;;;;;;1999.90;999.90;;;10.60;99.90;;;;;;5408780;26;19995;-76
2024/04/09 01:16:25;;;;;;;1999.90;999.90;;;10.60;99.90;;;;;;5409969;26;19995;-75
2024/04/09 01:18:51;;;;;;;1999.90;999.90;;;10.60;99.90;;;;;;5440933;26;20440;-76
2024/04/09 01:21:16;;;;;;;1999.90;999.90;;;10.60;99.90;;;;;;5442633;26;20454;-77
2024/04/09 01:23:42;;;;;;;1999.90;999.90;;;10.60;99.90;;;;;;5437717;26;20039;-77
2024/04/09 01:26:09;;;;;;;1999.90;999.90;;;10.60;99.90;;;;;;5439778;26;20003;-77
2024/04/09 01:28:36;;;;;;;1999.90;999.90;;;10.50;99.90;;;;;;5413868;26;19990;-77
2024/04/09 01:31:02;;;;;;;1999.90;999.90;;;10.60;99.90;;;;;;5413374;26;19999;-77
2024/04/09 01:33:28;;;;;;;1999.90;999.90;;;10.50;99.90;;;;;;5446677;26;20009;-77
2024/04/09 01:35:54;;;;;;;1999.90;999.90;;;10.60;99.90;;;;;;5430613;26;20003;-76
2024/04/09 01:38:20;;;;;;;1999.90;999.90;;;10.40;99.90;;;;;;5411606;26;19994;-75
2024/04/09 01:40:47;;;;;;;1999.90;999.90;;;10.10;99.90;;;;;;5408021;26;20006;-75
2024/04/09 01:43:13;;;;;;;1999.90;999.90;;;10.10;99.90;;;;;;5435352;26;20022;-76
2024/04/09 01:45:38;;;;;;;1999.90;999.90;;;10.30;99.90;;;;;;5449802;26;20031;-75
2024/04/09 01:48:04;;;;;;;1999.90;999.90;;;10.40;99.90;;;;;;5403889;26;20585;-76
2024/04/09 01:50:36;;;;;;;1999.90;999.90;;;10.40;99.90;;;;;;5445711;26;20003;-76
2024/04/09 01:53:03;;;;;;;1999.90;999.90;;;10.50;99.90;;;;;;5406308;26;20002;-76
2024/04/09 01:55:29;;;;;;;1999.90;999.90;;;10.30;99.90;;;;;;5445934;26;19994;-76
2024/04/09 01:57:55;;;;;;;1999.90;999.90;;;10.30;99.90;;;;;;5408360;26;20049;-76
2024/04/09 02:00:21;;;;;;;1999.90;999.90;;;10.00;99.90;;;;;;5443372;26;20017;-76
2024/04/09 02:02:52;;;;;;;1999.90;999.90;;;10.00;99.90;;;;;;5411099;26;20050;-76
2024/04/09 02:05:19;;;;;;;1999.90;999.90;;;10.00;99.90;;;;;;5415647;26;20050;-75
2024/04/09 02:07:46;;;;;;;1999.90;999.90;;;9.90;99.90;;;;;;5444170;26;20448;-75
2024/04/09 02:10:13;;;;;;;1999.90;999.90;;;9.80;99.90;;;;;;5411475;26;20051;-75
2024/04/09 02:12:39;;;;;;;1999.90;999.90;;;10.00;99.90;;;;;;5444158;26;20014;-75
2024/04/09 02:15:06;;;;;;;1999.90;999.90;;;10.10;99.90;;;;;;5446389;26;20106;-75
2024/04/09 02:17:31;;;;;;;1999.90;999.90;;;10.10;99.90;;;;;;5443716;26;20013;-75
2024/04/09 02:19:57;;;;;;;1999.90;999.90;;;10.20;99.90;;;;;;5443353;26;20011;-75
2024/04/09 02:22:24;;;;;;;1999.90;999.90;;;10.10;99.90;;;;;;5443606;26;20014;-76
2024/04/09 02:24:50;;;;;;;;;;;10.00;99.90;;;;;;5448080;26;20880;-77
2024/04/09 02:27:16;;;;;;;;;;;10.20;99.90;;;;;;5409982;26;20401;-78
2024/04/09 02:29:42;;;;;;;1999.90;999.90;;;10.00;99.90;;;;;;5447210;26;20407;-78
2024/04/09 02:32:07;;;;;;;1999.90;999.90;;;10.00;99.90;;;;;;5444053;26;20004;-78
2024/04/09 02:34:35;;;;;;;1999.90;999.90;;;10.00;99.90;;;;;;5415333;26;20502;-78
2024/04/09 02:37:05;;;;;;;1999.90;999.90;;;9.90;99.90;;;;;;5410089;26;19994;-78
2024/04/09 02:39:31;;;;;;;1999.90;999.90;;;10.00;99.90;;;;;;5443907;26;20018;-78
2024/04/09 02:41:57;;;;;;;1999.90;999.90;;;9.90;99.90;;;;;;5416930;26;20012;-78
2024/04/09 02:44:23;;;;;;;1999.90;999.90;;;9.90;99.90;;;;;;5442927;26;20558;-78
2024/04/09 02:46:52;;;;;;;1999.90;999.90;;;10.00;99.90;;;;;;5437332;26;19994;-77
2024/04/09 02:49:17;;;;;;;1999.90;999.90;;;9.90;99.90;;;;;;5410748;26;20002;-77
2024/04/09 02:51:44;;;;;;;1999.90;999.90;;;9.90;99.90;;;;;;5443889;26;20025;-79
2024/04/09 02:54:09;;;;;;;1999.90;999.90;;;9.90;99.90;;;;;;5417792;26;20091;-77
2024/04/09 02:56:35;;;;;;;1999.90;999.90;;;10.00;99.90;;;;;;5410474;26;20465;-78
2024/04/09 02:59:03;;;;;;;1999.90;999.90;;;9.90;99.90;;;;;;5445202;26;20002;-78
2024/04/09 03:01:29;;;;;;;1999.90;999.90;;;10.00;99.90;;;;;;5409904;26;20051;-77
2024/04/09 03:03:55;;;;;;;1999.90;999.90;;;10.00;99.90;;;;;;5446990;26;20001;-78
2024/04/09 03:06:21;;;;;;;1999.90;999.90;;;10.00;99.90;;;;;;5443560;26;20003;-78
2024/04/09 03:08:47;;;;;;;1999.90;999.90;;;9.90;99.90;;;;;;5400207;26;20342;-78
2024/04/09 03:11:15;;;;;;;1999.90;999.90;;;10.10;99.90;;;;;;5440466;26;20003;-77
2024/04/09 03:13:42;;;;;;;1999.90;999.90;;;10.00;99.90;;;;;;5413355;26;20006;-77
2024/04/09 03:16:15;;;;;;;1999.90;999.90;;;9.90;99.90;;;;;;5410140;26;19994;-77
2024/04/09 03:18:42;;;;;;;1999.90;999.90;;;9.80;99.90;;;;;;5411456;26;20015;-77
2024/04/09 03:21:08;;;;;;;1999.90;999.90;;;9.80;99.90;;;;;;5409555;26;19999;-77
2024/04/09 03:23:34;;;;;;;1999.90;999.90;;;9.80;99.90;;;;;;5441841;26;20079;-77
2024/04/09 03:26:00;;;;;;;1999.90;999.90;;;9.70;99.90;;;;;;5440988;26;20010;-77
2024/04/09 03:28:26;;;;;;;1999.90;999.90;;;9.50;99.90;;;;;;5451496;26;20501;-77
2024/04/09 03:30:59;;;;;;;1999.90;999.90;;;9.40;99.90;;;;;;5444051;26;20089;-77
2024/04/09 03:33:25;;;;;;;1999.90;999.90;;;9.50;99.90;;;;;;5441059;26;20068;-77
2024/04/09 03:35:56;;;;;;;1999.90;999.90;;;9.40;99.90;;;;;;5445366;26;20559;-77
2024/04/09 03:38:22;;;;;;;1999.90;999.90;;;9.30;99.90;;;;;;5410261;26;20715;-77
2024/04/09 03:40:59;;;;;;;1999.90;999.90;;;9.50;99.90;;;;;;5406840;26;20449;-76
2024/04/09 03:43:25;;;;;;;1999.90;999.90;;;9.40;99.90;;;;;;5419768;26;20022;-77
2024/04/09 03:46:16;;;;;;;1999.90;999.90;;;9.30;99.90;;;;;;5410255;26;20007;-77
2024/04/09 03:48:43;;;;;;;1999.90;999.90;;;9.30;99.90;;;;;;5444394;26;20018;-77
2024/04/09 03:51:10;;;;;;;1999.90;999.90;;;9.30;99.90;;;;;;5441231;26;20560;-77
2024/04/09 03:53:36;;;;;;;;;;;9.50;99.90;;;;;;5440381;26;20009;-77
2024/04/09 03:56:04;;;;;;;1999.90;999.90;;;9.40;99.90;;;;;;5438850;26;19936;-77
2024/04/09 03:58:46;;;;;;;1999.90;999.90;;;9.50;99.90;;;;;;5441167;26;19998;-77
2024/04/09 04:01:12;;;;;;;1999.90;999.90;;;9.40;99.90;;;;;;5439719;26;20037;-76
2024/04/09 04:03:40;;;;;;;1999.90;999.90;;;9.30;99.90;;;;;;5408306;26;20004;-76
2024/04/09 04:06:06;;;;;;;1999.90;999.90;;;9.30;99.90;;;;;;5442377;26;20546;-77
2024/04/09 04:08:34;;;;;;;1999.90;999.90;;;9.30;99.90;;;;;;5444514;26;20005;-78
2024/04/09 04:11:09;;;;;;;1999.90;999.90;;;9.40;99.90;;;;;;5440342;26;20008;-78
2024/04/09 04:13:35;;;;;;;1999.90;999.90;;;9.30;99.90;;;;;;5409932;26;19999;-78
2024/04/09 04:16:09;;;;;;;;;;;9.40;99.90;;;;;;5410959;26;20007;-78
2024/04/09 04:18:40;;;;;;;1999.90;999.90;;;9.60;99.90;;;;;;5418798;26;19986;-78
2024/04/09 04:21:12;;;;;;;1999.90;999.90;;;9.40;99.90;;;;;;5410783;26;20018;-79
2024/04/09 04:23:45;;;;;;;1999.90;999.90;;;9.30;99.90;;;;;;5440950;26;20871;-79
2024/04/09 04:26:19;;;;;;;1999.90;999.90;;;9.30;99.90;;;;;;5446412;26;20030;-79
2024/04/09 04:28:46;;;;;;;1999.90;999.90;;;9.20;99.90;;;;;;5404490;26;20015;-79
2024/04/09 04:31:17;;;;;;;1999.90;999.90;;;9.40;99.90;;;;;;5435102;26;20002;-78
2024/04/09 04:33:44;;;;;;;1999.90;999.90;;;9.40;99.90;;;;;;5402992;26;20023;-77
2024/04/09 04:36:11;;;;;;;1999.90;999.90;;;9.40;99.90;;;;;;5443916;26;20006;-78
2024/04/09 04:38:38;;;;;;;1999.90;999.90;;;9.30;99.90;;;;;;5411426;26;20010;-80
2024/04/09 04:41:04;;;;;;;1999.90;999.90;;;9.40;99.90;;;;;;5408141;26;20011;-77
2024/04/09 04:43:31;;;;;;;1999.90;999.90;;;9.40;99.90;;;;;;5426015;26;20020;-78
2024/04/09 04:45:57;;;;;;;1999.90;999.90;;;9.40;99.90;;;;;;5415339;26;20018;-77
2024/04/09 04:48:22;;;;;;;1999.90;999.90;;;9.50;99.90;;;;;;5415925;26;20003;-77
2024/04/09 04:50:49;;;;;;;1999.90;999.90;;;9.50;99.90;;;;;;5447164;26;20002;-77
2024/04/09 04:53:15;;;;;;;1999.90;999.90;;;9.50;99.90;;;;;;5408987;26;20003;-77
2024/04/09 04:55:40;;;;;;;1999.90;999.90;;;9.50;99.90;;;;;;5432136;26;19995;-77
2024/04/09 04:58:07;;;;;;;1999.90;999.90;;;9.40;99.90;;;;;;5440187;26;20276;-78
2024/04/09 05:00:35;;;;;;;1999.90;999.90;;;9.20;99.90;;;;;;5440692;26;20005;-77
2024/04/09 05:03:01;;;;;;;1999.90;999.90;;;9.40;99.90;;;;;;5406995;26;20583;-77
2024/04/09 05:05:28;;;;;;;1999.90;999.90;;;9.50;99.90;;;;;;5441342;26;20469;-76
2024/04/09 05:07:54;;;;;;;1999.90;999.90;;;9.50;99.90;;;;;;5436414;26;20222;-78
2024/04/09 05:10:20;;;;;;;1999.90;999.90;;;9.40;99.90;;;;;;5442303;26;20009;-77
2024/04/09 05:12:47;;;;;;;1999.90;999.90;;;9.40;99.90;;;;;;5447835;26;19999;-80
2024/04/09 05:15:13;;;;;;;1999.90;999.90;;;9.40;99.90;;;;;;5447066;26;20002;-80
2024/04/09 05:17:40;;;;;;;1999.90;999.90;;;9.30;99.90;;;;;;5407358;26;20092;-78
2024/04/09 05:20:10;;;;;;;1999.90;999.90;;;9.30;99.90;;;;;;5440216;26;20014;-78
2024/04/09 05:22:38;;;;;;;1999.90;999.90;;;9.40;99.90;;;;;;5446257;26;20002;-75
2024/04/09 05:25:05;;;;;;;1999.90;999.90;;;9.20;99.90;;;;;;5450469;26;19999;-77
2024/04/09 05:27:31;;;;;;;1999.90;999.90;;;9.20;99.90;;;;;;5443545;26;20003;-75
2024/04/09 05:29:57;;;;;;;1999.90;999.90;;;9.20;99.90;;;;;;5410743;26;21767;-76
2024/04/09 05:32:23;;;;;;;1999.90;999.90;;;9.10;99.90;;;;;;5445938;26;20091;-76
2024/04/09 05:34:49;;;;;;;1999.90;999.90;;;9.20;99.90;;;;;;5446845;26;19994;-77
2024/04/09 05:37:15;;;;;;;1999.90;999.90;;;9.40;99.90;;;;;;5415683;26;20011;-76
2024/04/09 05:39:48;;;;;;;1999.90;999.90;;;9.50;99.90;;;;;;5404048;26;20069;-76
2024/04/09 05:42:14;;;;;;;1999.90;999.90;;;9.40;99.90;;;;;;5434962;26;19999;-74
2024/04/09 05:44:40;;;;;;;1999.90;999.90;;;9.40;99.90;;;;;;5428209;26;19998;-76
2024/04/09 05:47:06;;;;;;;1999.90;999.90;;;9.40;99.90;;;;;;5443571;26;20013;-76
2024/04/09 05:49:35;;;;;;;1999.90;999.90;;;9.30;99.90;;;;;;5446169;26;19995;-74
2024/04/09 05:52:01;;;;;;;1999.90;999.90;;;9.40;99.90;;;;;;5442489;26;20082;-73
2024/04/09 05:54:27;;;;;;;1999.90;999.90;;;9.30;99.90;;;;;;5436060;26;20447;-73
2024/04/09 05:56:54;;;;;;;1999.90;999.90;;;9.40;99.90;;;;;;5408602;26;19999;-74
2024/04/09 05:59:20;;;;;;;1999.90;999.90;;;9.30;99.90;;;;;;5413238;26;19998;-73
2024/04/09 06:01:45;;;;;;;1999.90;999.90;;;9.30;99.90;;;;;;5415383;26;19995;-73
2024/04/09 06:04:11;;;;;;;1999.90;999.90;;;9.40;99.90;;;;;;5411869;26;20010;-75
2024/04/09 06:06:37;;;;;;;1999.90;999.90;;;9.40;99.90;;;;;;5442471;26;20580;-75
2024/04/09 06:09:03;;;;;;;1999.90;999.90;;;9.30;99.90;;;;;;5442411;26;20002;-77
2024/04/09 06:11:29;;;;;;;1999.90;999.90;;;9.40;99.90;;;;;;5443831;26;20367;-75
2024/04/09 06:13:55;;;;;;;1999.90;999.90;;;9.60;99.90;;;;;;5413542;26;20015;-84
2024/04/09 06:16:21;;;;;;;1999.90;999.90;;;10.30;99.90;;;;;;5444230;26;20256;-84
2024/04/09 06:18:47;;;;;;;1999.90;999.90;;;10.30;99.90;;;;;;5411576;26;20047;-76
2024/04/09 06:21:13;;;;;;;1999.90;999.90;;;9.70;99.90;;;;;;5438375;26;19998;-77
2024/04/09 06:23:39;;;;;;;1999.90;999.90;;;9.60;99.90;;;;;;5410798;26;20034;-84
2024/04/09 06:26:05;;;;;;;1999.90;999.90;;;9.60;99.90;;;;;;5443322;26;20002;-78
2024/04/09 06:28:31;;;;;;;1999.90;999.90;;;9.80;99.90;;;;;;5415291;26;19995;-76
2024/04/09 06:30:57;;;;;;;1999.90;999.90;;;9.90;99.90;;;;;;5441197;26;19999;-76
2024/04/09 06:33:25;;;;;;;1999.90;999.90;;;9.90;99.90;;;;;;5442492;26;20048;-76
2024/04/09 06:35:51;;;;;;;1999.90;999.90;;;9.90;99.90;;;;;;5444778;26;20276;-77
2024/04/09 06:38:17;;;;;;;1999.90;999.90;;;10.00;99.90;;;;;;5436042;26;19998;-77
2024/04/09 06:40:43;;;;;;;1999.90;999.90;;;10.20;99.90;;;;;;5442564;26;20010;-77
2024/04/09 06:43:10;;;;;;;1999.90;999.90;;;11.20;99.10;;;;;;5432297;26;19995;-76
2024/04/09 06:45:36;;;;;;;1999.90;999.90;;;11.20;98.00;;;;;;5453816;26;20079;-78
2024/04/09 06:48:02;;;;;;;1999.90;999.90;;;10.70;98.60;;;;;;5410698;26;20582;-76
2024/04/09 06:50:28;;;;;;;1999.90;999.90;;;10.70;99.60;;;;;;5443771;26;20103;-76
2024/04/09 06:52:53;;;;;;;1999.90;999.90;;;10.40;99.90;;;;;;5435197;26;20334;-75
2024/04/09 06:55:19;;;;;;;1999.90;999.90;;;10.30;99.90;;;;;;5439639;26;20342;-75
2024/04/09 06:57:47;;;;;;;1999.90;999.90;;;10.20;99.90;;;;;;5436955;26;20474;-76
2024/04/09 07:00:17;;;;;;;1999.90;999.90;;;10.30;99.90;;;;;;5441947;26;20002;-75
2024/04/09 07:02:43;;;;;;;1999.90;999.90;;;10.50;99.90;;;;;;5408792;26;20004;-76
2024/04/09 07:05:09;;;;;;;1999.90;999.90;;;11.80;98.50;;;;;;5408730;26;20002;-77
2024/04/09 07:07:35;;;;;;;1999.90;999.90;;;13.50;93.10;;;;;;5405575;26;20079;-76
2024/04/09 07:10:02;;;;;;;1999.90;999.90;;;15.20;90.00;;;;;;5438583;26;20013;-76
2024/04/09 07:12:28;;;;;;;1999.90;999.90;;;13.10;90.20;;;;;;5439255;26;20514;-76
2024/04/09 07:14:54;;;;;;;1999.90;999.90;;;13.30;92.20;;;;;;5411619;26;20166;-75
2024/04/09 07:17:20;;;;;;;1999.90;999.90;;;14.20;89.00;;;;;;5442358;26;19991;-76
2024/04/09 07:19:46;;;;;;;1999.90;999.90;;;14.00;85.50;;;;;;5441865;26;20044;-76
2024/04/09 07:22:12;;;;;;;1999.90;999.90;;;13.70;89.50;;;;;;5425572;26;19999;-77
2024/04/09 07:24:42;;;;;;;1999.90;999.90;;;15.80;82.40;;;;;;5444125;26;20031;-77
2024/04/09 07:27:08;;;;;;;1999.90;999.90;;;13.90;85.80;;;;;;5422556;26;20958;-77
2024/04/09 07:29:34;;;;;;;1999.90;999.90;;;13.40;87.80;;;;;;5408630;26;20113;-77
2024/04/09 07:32:00;;;;;;;1999.90;999.90;;;14.10;90.40;;;;;;5442364;26;20581;-78
2024/04/09 07:34:26;;;;;;;1999.90;999.90;;;13.80;87.20;;;;;;5446658;26;19991;-78
2024/04/09 07:36:52;;;;;;;1999.90;999.90;;;13.70;88.70;;;;;;5459010;26;20651;-78
2024/04/09 07:39:18;;;;;;;1999.90;999.90;;;12.90;89.60;;;;;;5449336;26;20010;-78
2024/04/09 07:41:44;;;;;;;1999.90;999.90;;;12.60;90.80;;;;;;5409387;26;20493;-78
2024/04/09 07:44:10;;;;;;;1999.90;999.90;;;13.40;90.40;;;;;;5433162;26;20047;-79
2024/04/09 07:46:36;;;;;;;1999.90;999.90;;;12.80;89.40;;;;;;5409201;26;20069;-78
2024/04/09 07:49:04;;;;;;;1999.90;999.90;;;13.00;90.40;;;;;;5405206;26;20217;-78
2024/04/09 07:51:30;;;;;;;1999.90;999.90;;;15.60;85.50;;;;;;5441821;26;20760;-78
2024/04/09 07:53:56;;;;;;;1999.90;999.90;;;13.80;85.40;;;;;;5435490;26;20062;-78
2024/04/09 07:56:22;;;;;;;1999.90;999.90;;;16.30;82.20;;;;;;5444889;26;20003;-79
2024/04/09 07:58:48;;;;;;;1999.90;999.90;;;15.10;79.00;;;;;;5440614;26;20751;-79
2024/04/09 08:01:13;;;;;;;1999.90;999.90;;;16.90;78.90;;;;;;5447446;26;20006;-80
2024/04/09 08:03:39;;;;;;;1999.90;999.90;;;17.10;75.20;;;;;;5450192;26;20009;-77
2024/04/09 08:06:06;;;;;;;1999.90;999.90;;;16.40;78.10;;;;;;5411986;26;20084;-77
2024/04/09 08:08:32;;;;;;;1999.90;999.90;;;18.00;71.30;;;;;;5410749;26;20049;-79
2024/04/09 08:10:58;;;;;;;;;;;14.80;75.20;;;;;;5410063;26;20015;-80
2024/04/09 08:13:24;;;;;;;1999.90;999.90;;;13.50;80.20;;;;;;5439797;26;20376;-81
2024/04/09 08:15:52;;;;;;;1999.90;999.90;;;12.60;85.60;;;;;;5437358;26;19994;-82
2024/04/09 08:18:18;;;;;;;1999.90;999.90;;;11.90;88.40;;;;;;5404373;26;20040;-81
2024/04/09 08:20:44;;;;;;;1999.90;999.90;;;11.50;89.20;;;;;;5427942;26;20027;-82
2024/04/09 08:23:10;;;;;;;;;;;11.20;89.60;;;;;;5391389;26;21078;-81
2024/04/09 08:25:36;;;;;;;1999.90;999.90;;;11.40;90.50;;;;;;5422849;26;19929;-81
2024/04/09 08:28:02;;;;;;;1999.90;999.90;;;13.40;90.60;;;;;;5429254;26;19995;-81
2024/04/09 08:30:28;;;;;;;1999.90;999.90;;;18.40;73.50;;;;;;5426281;26;19995;-81
2024/04/09 08:32:55;;;;;;;1999.90;999.90;;;15.40;69.30;;;;;;5440828;26;19995;-81
2024/04/09 08:35:20;;;;;;;1999.90;999.90;;;13.30;80.00;;;;;;5440946;26;20031;-80
2024/04/09 08:37:46;;;;;;;1999.90;999.90;;;12.50;84.10;;;;;;5434219;26;19995;-82
2024/04/09 08:40:16;;;;;;;1999.90;999.90;;;13.50;84.60;;;;;;5399642;26;20010;-81
2024/04/09 08:42:42;;;;;;;1999.90;999.90;;;17.00;75.60;;;;;;5394233;26;20269;-82
2024/04/09 08:45:14;;;;;;;1999.90;999.90;;;18.50;67.70;;;;;;5425172;26;20339;-82
2024/04/09 08:47:43;;;;;;;1999.90;999.90;;;16.40;65.50;;;;;;5436950;26;20091;-81
2024/04/09 08:50:09;;;;;;;1999.90;999.90;;;14.50;72.40;;;;;;5445626;26;20100;-81
2024/04/09 08:52:36;;;;;;;1999.90;999.90;;;13.30;77.90;;;;;;5438828;26;20007;-81
2024/04/09 08:55:08;;;;;;;1999.90;999.90;;;12.50;81.20;;;;;;5436589;26;20014;-81
2024/04/09 08:57:34;;;;;;;1999.90;999.90;;;12.80;80.90;;;;;;5449598;26;20003;-80
2024/04/09 09:00:08;;;;;;;1999.90;999.90;;;13.50;83.30;;;;;;5441886;26;20010;-81
2024/04/09 09:02:37;;;;;;;1999.90;999.90;;;14.60;79.30;;;;;;5442311;26;20014;-81
2024/04/09 09:05:03;;;;;;;1999.90;999.90;;;17.40;66.00;;;;;;5449562;26;20009;-81
2024/04/09 09:07:30;;;;;;;1999.90;999.90;;;15.60;68.00;;;;;;5415192;26;20015;-81
2024/04/09 09:10:01;;;;;;;1999.90;999.90;;;14.80;69.40;;;;;;5447856;26;20013;-82
2024/04/09 09:12:26;;;;;;;1999.90;999.90;;;14.80;71.10;;;;;;5410037;26;20018;-81
2024/04/09 09:15:00;;;;;;;1999.90;999.90;;;14.60;69.30;;;;;;5451404;26;20016;-82
2024/04/09 09:17:26;;;;;;;1999.90;999.90;;;13.70;72.30;;;;;;5413595;26;20009;-81
2024/04/09 09:20:14;;;;;;;1999.90;999.90;;;13.40;76.20;;;;;;5439386;26;20024;-81
2024/04/09 09:22:47;;;;;;;1999.90;999.90;;;14.00;75.60;;;;;;5418826;26;19998;-81
2024/04/09 09:25:25;;;;;;;1999.90;999.90;;;15.20;72.30;;;;;;5420118;26;20100;-81
2024/04/09 09:28:07;;;;;;;1999.90;999.90;;;15.90;71.20;;;;;;5430689;26;20002;-81
2024/04/09 09:30:40;;;;;;;1999.90;999.90;;;19.30;63.80;;;;;;5450816;26;20003;-81
2024/04/09 09:33:19;;;;;;;1999.90;999.90;;;21.90;56.30;;;;;;5418075;26;20013;-81
2024/04/09 09:35:50;;;;;;;1999.90;999.90;;;23.00;52.20;;;;;;5442223;26;20006;-81
2024/04/09 09:38:21;;;;;;;1999.90;999.90;;;20.70;53.50;;;;;;5430167;26;20068;-81
2024/04/09 09:40:51;;;;;;;1999.90;999.90;;;20.50;53.30;;;;;;5427979;26;20006;-81
2024/04/09 09:43:19;;;;;;;1999.90;999.90;;;20.30;54.50;;;;;;5423811;26;20009;-81
2024/04/09 09:45:45;;;;;;;1999.90;999.90;;;19.40;57.20;;;;;;5425055;26;20424;-82
2024/04/09 09:48:19;;;;;;;1999.90;999.90;;;21.10;53.30;;;;;;5404539;26;20003;-81
2024/04/09 09:50:45;;;;;;;1999.90;999.90;;;17.70;54.80;;;;;;5415613;26;20018;-81
2024/04/09 09:53:11;;;;;;;1999.90;999.90;;;15.30;61.50;;;;;;5408248;26;19999;-81
2024/04/09 09:55:38;;;;;;;1999.90;999.90;;;14.60;62.90;;;;;;5409424;26;20553;-81
2024/04/09 09:58:06;;;;;;;;;;;14.10;62.50;;;;;;5414188;26;20010;-81
2024/04/09 10:00:35;;;;;;;1999.90;999.90;;;13.00;67.70;;;;;;5449669;26;19924;-80
2024/04/09 10:03:01;;;;;;;1999.90;999.90;;;12.00;75.00;;;;;;5441631;26;20006;-80
2024/04/09 10:05:34;;;;;;;1999.90;999.90;;;12.30;77.50;;;;;;5447641;26;20044;-81
2024/04/09 10:07:59;;;;;;;1999.90;999.90;;;11.80;72.70;;;;;;5442631;26;19998;-81
2024/04/09 10:10:30;;;;;;;1999.90;999.90;;;12.20;71.50;;;;;;5411477;26;20009;-80
2024/04/09 10:13:07;;;;;;;1999.90;999.90;;;11.90;71.20;;;;;;5401077;26;20016;-80
2024/04/09 10:15:33;;;;;;;1999.90;999.90;;;11.50;72.80;;;;;;5412369;26;20013;-80
2024/04/09 10:18:06;;;;;;;1999.90;999.90;;;11.40;72.40;;;;;;5442954;26;20003;-81
2024/04/09 10:20:36;;;;;;;1999.90;999.90;;;11.30;73.50;;;;;;5398557;26;20000;-83
2024/04/09 10:23:06;;;;;;;1999.90;999.90;;;12.00;72.00;;;;;;5452110;26;20020;-82
2024/04/09 10:25:40;;;;;;;1999.90;999.90;;;13.30;73.20;;;;;;5423242;26;20010;-82
2024/04/09 10:28:13;;;;;;;1999.90;999.90;;;13.90;71.00;;;;;;5441249;26;20361;-80
2024/04/09 10:30:45;;;;;;;1999.90;999.90;;;14.50;70.70;;;;;;5454346;26;20079;-82
2024/04/09 10:33:11;;;;;;;1999.90;999.90;;;14.60;68.30;;;;;;5417965;26;20017;-83
2024/04/09 10:35:43;;;;;;;1999.90;999.90;;;14.20;70.80;;;;;;5441694;26;21347;-81
2024/04/09 10:38:10;;;;;;;1999.90;999.90;;;14.30;73.10;;;;;;5410652;26;19999;-83
2024/04/09 10:40:36;;;;;;;1999.90;999.90;;;14.50;70.30;;;;;;5414878;26;20058;-84
2024/04/09 10:43:05;;;;;;;1999.90;999.90;;;14.40;70.30;;;;;;5431905;26;20103;-88
2024/04/09 10:45:32;;;;;;;1999.90;999.90;;;14.40;72.00;;;;;;5436777;26;20004;-76
2024/04/09 10:47:59;;;;;;;1999.90;999.90;;;14.10;68.50;;;;;;5440155;26;19990;-81
2024/04/09 10:50:25;;;;;;;1999.90;999.90;;;14.50;72.90;;;;;;5443754;26;20006;-79
2024/04/09 10:52:51;;;;;;;1999.90;999.90;;;14.60;70.00;;;;;;5409987;26;19991;-80
2024/04/09 10:55:17;;;;;;;1999.90;999.90;;;14.90;70.20;;;;;;5445368;26;20010;-81
2024/04/09 10:57:49;;;;;;;1999.90;999.90;;;15.40;71.50;;;;;;5442650;26;20236;-81
2024/04/09 11:00:16;;;;;;;1999.90;999.90;;;14.60;67.30;;;;;;5414818;26;19995;-80
2024/04/09 11:02:42;;;;;;;;;;;14.60;72.50;;;;;;5415135;26;20002;-80
2024/04/09 11:05:09;;;;;;;1999.90;999.90;;;15.10;74.60;;;;;;5446320;26;19924;-80
2024/04/09 11:07:37;;;;;;;1999.90;999.90;;;15.00;72.30;;;;;;5444083;26;19999;-80
2024/04/09 11:10:23;;;;;;;1999.90;999.90;;;15.00;70.80;;;;;;5437935;26;20873;-80
2024/04/09 11:12:53;;;;;;;1999.90;999.90;;;14.60;68.70;;;;;;5409839;26;19995;-80
2024/04/09 11:15:20;;;;;;;1999.90;999.90;;;14.60;65.00;;;;;;5408650;26;20013;-79
2024/04/09 11:17:46;;;;;;;1999.90;999.90;;;15.10;65.10;;;;;;5441214;26;20007;-79
2024/04/09 11:20:18;;;;;;;1999.90;999.90;;;15.10;67.00;;;;;;5438161;26;20073;-79
2024/04/09 11:22:44;;;;;;;1999.90;999.90;;;15.30;64.40;;;;;;5414686;26;19999;-79
2024/04/09 11:25:19;;;;;;;1999.90;999.90;;;15.80;65.00;;;;;;5409903;26;20037;-79
2024/04/09 11:27:48;;;;;;;1999.90;999.90;;;16.00;63.30;;;;;;5444752;26;20021;-78
2024/04/09 11:30:26;;;;;;;1999.90;999.90;;;15.60;60.70;;;;;;5442915;26;20092;-79
2024/04/09 11:32:54;;;;;;;1999.90;999.90;;;16.00;64.80;;;;;;5415457;26;20014;-79
2024/04/09 11:35:21;;;;;;;1999.90;999.90;;;16.30;61.50;;;;;;5438701;26;20572;-80
2024/04/09 11:37:51;;;;;;;1999.90;999.90;;;16.40;61.10;;;;;;5441849;26;20001;-79
2024/04/09 11:40:20;;;;;;;1999.90;999.90;;;17.00;60.80;;;;;;5420943;26;20042;-81
2024/04/09 11:42:49;;;;;;;1999.90;999.90;;;16.20;56.10;;;;;;5417648;26;20864;-79
2024/04/09 11:45:28;;;;;;;1999.90;999.90;;;15.30;58.70;;;;;;5452112;26;22081;-81
2024/04/09 11:47:54;;;;;;;1999.90;999.90;;;13.90;62.40;;;;;;5409211;26;20006;-80
2024/04/09 11:50:20;;;;;;;1999.90;999.90;;;13.40;65.10;;;;;;5414658;26;20044;-80
2024/04/09 11:52:46;;;;;;;1999.90;999.90;;;13.20;67.00;;;;;;5449951;26;20006;-79
2024/04/09 11:55:12;;;;;;;1999.90;999.90;;;13.50;65.70;;;;;;5412834;26;19991;-79
2024/04/09 11:57:40;;;;;;;1999.90;999.90;;;13.70;62.40;;;;;;5443328;26;20010;-78
2024/04/09 12:00:07;;;;;;;1999.90;999.90;;;13.40;63.30;;;;;;5441132;26;20224;-78
2024/04/09 12:02:33;;;;;;;1999.90;999.90;;;13.30;63.00;;;;;;5445048;26;20007;-78
2024/04/09 12:04:59;;;;;;;1999.90;999.90;;;13.40;60.70;;;;;;5412118;26;20079;-78
2024/04/09 12:07:25;;;;;;;1999.90;999.90;;;13.30;62.50;;;;;;5441398;26;19999;-79